Time;durP1;ratioP1;P1;durP2;ratioP2;P2;SDS_P1;SDS_P2;PMS_P1;PMS_P2;Temp;Humidity;BMP_temperature;BMP_pressure;BME280_temperature;BME280_humidity;BME280_pressure;Samples;Min_cycle;Max_cycle;Signal;HPM_P1;HPM_P2
2022/10/03 00:01:35;;;;;;;13.43;2.85;;;11.90;99.90;;;;;;5083597;28;20110;-77
2022/10/03 00:04:37;;;;;;;14.15;2.90;;;11.90;99.90;;;;;;5079088;28;20047;-77
2022/10/03 00:07:11;;;;;;;14.43;3.10;;;11.90;99.90;;;;;;5093086;28;20044;-77
2022/10/03 00:10:07;;;;;;;22.33;3.28;;;11.90;99.90;;;;;;5072547;28;20409;-77
2022/10/03 00:12:41;;;;;;;14.60;2.95;;;11.90;99.90;;;;;;5078062;28;20222;-77
2022/10/03 00:15:47;;;;;;;13.60;2.92;;;11.90;99.90;;;;;;5072621;28;20056;-77
2022/10/03 00:18:19;;;;;;;17.27;2.58;;;12.00;99.90;;;;;;5042048;28;20056;-77
2022/10/03 00:21:00;;;;;;;13.75;2.47;;;12.10;99.90;;;;;;5082752;28;20071;-77
2022/10/03 00:24:04;;;;;;;16.05;2.67;;;12.10;99.90;;;;;;5093176;28;20043;-77
2022/10/03 00:26:39;;;;;;;11.38;2.50;;;12.20;99.90;;;;;;5055842;28;20151;-78
2022/10/03 00:29:08;;;;;;;14.52;2.78;;;12.20;99.90;;;;;;5073113;28;20044;-77
2022/10/03 00:31:56;;;;;;;15.57;3.00;;;12.90;99.90;;;;;;5076371;28;20468;-77
2022/10/03 00:34:54;;;;;;;17.58;3.60;;;12.20;99.90;;;;;;5092600;28;20048;-77
2022/10/03 00:37:28;;;;;;;15.40;2.97;;;12.20;99.90;;;;;;5092934;28;20351;-77
2022/10/03 00:40:18;;;;;;;14.15;3.08;;;12.30;99.90;;;;;;5074872;28;20039;-77
2022/10/03 00:43:12;;;;;;;12.50;3.03;;;12.40;99.90;;;;;;5092473;28;20067;-77
2022/10/03 00:46:09;;;;;;;18.85;3.33;;;12.40;99.90;;;;;;5074255;28;20043;-77
2022/10/03 00:48:56;;;;;;;14.88;3.03;;;12.80;99.90;;;;;;5022716;28;20056;-77
2022/10/03 00:51:37;;;;;;;12.73;2.75;;;12.40;99.90;;;;;;5091987;28;20047;-77
2022/10/03 00:54:26;;;;;;;12.82;2.67;;;12.40;99.90;;;;;;5076024;28;20051;-77
2022/10/03 00:57:18;;;;;;;11.45;2.20;;;12.50;99.90;;;;;;5106927;28;20040;-77
2022/10/03 01:00:04;;;;;;;12.20;2.55;;;12.40;99.90;;;;;;5063600;28;20098;-77
2022/10/03 01:02:39;;;;;;;13.73;2.75;;;12.50;99.90;;;;;;5074593;28;20075;-77
2022/10/03 01:05:07;;;;;;;18.88;2.50;;;13.20;99.90;;;;;;5088682;28;20392;-77
2022/10/03 01:08:11;;;;;;;12.25;2.38;;;12.60;99.90;;;;;;5090711;28;20353;-77
2022/10/03 01:10:55;;;;;;;13.35;2.28;;;12.40;99.90;;;;;;5073862;28;20135;-77
2022/10/03 01:13:27;;;;;;;21.33;3.17;;;12.40;99.90;;;;;;5092138;28;20385;-77
2022/10/03 01:16:37;;;;;;;17.15;3.47;;;12.40;99.90;;;;;;5105488;28;20396;-77
2022/10/03 01:19:25;;;;;;;13.50;2.20;;;12.50;99.90;;;;;;5036439;28;20049;-76
2022/10/03 01:22:06;;;;;;;17.25;2.60;;;12.40;99.90;;;;;;5058502;28;20055;-77
2022/10/03 01:24:43;;;;;;;10.82;2.55;;;12.40;99.90;;;;;;5078212;28;20036;-77
2022/10/03 01:27:17;;;;;;;13.77;2.75;;;12.40;99.90;;;;;;5078249;28;20157;-77
2022/10/03 01:32:39;;;;;;;14.23;2.33;;;12.40;99.90;;;;;;5108026;28;20064;-77
2022/10/03 01:35:28;;;;;;;12.30;2.30;;;12.30;99.90;;;;;;5061624;28;20392;-77
2022/10/03 01:38:16;;;;;;;10.02;2.30;;;13.00;99.90;;;;;;5066815;28;20056;-77
2022/10/03 01:41:02;;;;;;;12.10;2.45;;;12.40;99.90;;;;;;5076125;28;20044;-77
2022/10/03 01:43:43;;;;;;;14.23;2.25;;;12.30;99.90;;;;;;5097396;28;20418;-77
2022/10/03 01:46:31;;;;;;;14.18;2.85;;;13.00;99.90;;;;;;5104269;28;20105;-77
2022/10/03 01:49:16;;;;;;;12.07;2.33;;;13.00;99.90;;;;;;5096773;28;20441;-77
2022/10/03 01:51:59;;;;;;;8.98;2.20;;;12.20;99.90;;;;;;5115907;28;20040;-77
2022/10/03 01:54:57;;;;;;;11.10;2.55;;;12.20;99.90;;;;;;5097107;28;20082;-76
2022/10/03 01:57:48;;;;;;;14.70;2.55;;;12.10;99.90;;;;;;5081380;28;20323;-77
2022/10/03 02:00:19;;;;;;;13.90;2.78;;;12.10;99.90;;;;;;5096068;28;20035;-77
2022/10/03 02:03:01;;;;;;;12.63;2.60;;;12.10;99.90;;;;;;5095496;28;20051;-77
2022/10/03 02:05:51;;;;;;;15.82;3.25;;;12.10;99.90;;;;;;5095939;28;20048;-77
2022/10/03 02:08:36;;;;;;;12.60;2.17;;;12.00;99.90;;;;;;5060864;28;20502;-77
2022/10/03 02:11:07;;;;;;;10.05;2.15;;;12.10;99.90;;;;;;5087530;28;20441;-77
2022/10/03 02:14:03;;;;;;;14.75;2.58;;;12.10;99.90;;;;;;5095778;28;20035;-77
2022/10/03 02:16:35;;;;;;;12.88;2.50;;;12.10;99.90;;;;;;5107497;28;20396;-77
2022/10/03 02:19:28;;;;;;;10.48;2.50;;;12.10;99.90;;;;;;5098002;28;20114;-77
2022/10/03 02:21:56;;;;;;;15.88;2.95;;;12.10;99.90;;;;;;5076960;28;20135;-77
2022/10/03 02:24:54;;;;;;;14.25;2.70;;;12.60;99.90;;;;;;5077381;28;20439;-77
2022/10/03 02:27:58;;;;;;;10.65;2.83;;;12.10;99.90;;;;;;5076772;28;20128;-77
2022/10/03 02:30:36;;;;;;;13.30;2.65;;;12.10;99.90;;;;;;5056417;28;20060;-77
2022/10/03 02:33:25;;;;;;;17.77;2.72;;;12.20;99.90;;;;;;5073012;28;20058;-77
2022/10/03 02:36:10;;;;;;;15.27;2.55;;;12.20;99.90;;;;;;5096638;28;20380;-77
2022/10/03 02:39:08;;;;;;;17.67;2.55;;;12.20;99.90;;;;;;5097157;28;20048;-77
2022/10/03 02:41:51;;;;;;;10.90;2.10;;;12.20;99.90;;;;;;5097013;28;20427;-77
2022/10/03 02:44:53;;;;;;;10.13;2.33;;;12.20;99.90;;;;;;5114828;28;20035;-77
2022/10/03 02:48:01;;;;;;;13.18;3.13;;;12.30;99.90;;;;;;5077101;28;20051;-77
2022/10/03 02:51:09;;;;;;;9.57;2.50;;;12.20;99.90;;;;;;5060053;28;20400;-77
2022/10/03 02:54:14;;;;;;;16.58;3.03;;;12.30;99.90;;;;;;5058801;28;20107;-77
2022/10/03 02:57:08;;;;;;;13.20;2.20;;;12.20;99.90;;;;;;5109934;28;20047;-76
2022/10/03 03:00:09;;;;;;;10.05;2.42;;;12.20;99.90;;;;;;5088813;28;20040;-76
2022/10/03 03:03:00;;;;;;;12.73;2.50;;;12.20;99.90;;;;;;5061791;28;20108;-77
2022/10/03 03:05:58;;;;;;;11.10;2.47;;;12.20;99.90;;;;;;5085394;28;20044;-77
2022/10/03 03:08:39;;;;;;;12.57;2.20;;;12.20;99.90;;;;;;5092462;28;20050;-77
2022/10/03 03:11:29;;;;;;;9.40;2.35;;;12.30;99.90;;;;;;5102581;28;20040;-76
2022/10/03 03:14:04;;;;;;;13.10;2.80;;;12.30;99.90;;;;;;5076126;28;20052;-77
2022/10/03 03:16:31;;;;;;;;;;;12.30;99.90;;;;;;5094512;28;20115;-77
2022/10/03 03:19:31;;;;;;;13.77;3.00;;;12.40;99.90;;;;;;5072614;28;19926;-76
2022/10/03 03:22:31;;;;;;;12.32;2.58;;;12.40;99.90;;;;;;5098542;28;20043;-77
2022/10/03 03:24:59;;;;;;;12.77;2.42;;;12.40;99.90;;;;;;5092478;28;20059;-77
2022/10/03 03:27:32;;;;;;;11.18;2.50;;;12.40;99.90;;;;;;5112733;28;20287;-77
2022/10/03 03:30:22;;;;;;;11.98;2.60;;;12.40;99.90;;;;;;5104970;28;20048;-76
2022/10/03 03:33:25;;;;;;;13.82;2.67;;;12.90;99.90;;;;;;5076459;28;20495;-77
2022/10/03 03:36:06;;;;;;;12.45;2.85;;;12.40;99.90;;;;;;5075770;28;20221;-77
2022/10/03 03:38:41;;;;;;;13.60;2.30;;;12.40;99.90;;;;;;5103690;28;20093;-76
2022/10/03 03:41:13;;;;;;;15.35;2.45;;;12.40;99.90;;;;;;5080868;28;20047;-77
2022/10/03 03:44:12;;;;;;;12.32;2.40;;;13.10;99.90;;;;;;5059121;28;20152;-77
2022/10/03 03:46:59;;;;;;;14.80;2.60;;;12.40;99.90;;;;;;5095507;28;20086;-77
2022/10/03 03:50:01;;;;;;;13.27;2.78;;;12.40;99.90;;;;;;5093312;28;20142;-77
2022/10/03 03:52:34;;;;;;;12.50;2.60;;;12.40;99.90;;;;;;5093596;28;20142;-76
2022/10/03 03:55:08;;;;;;;11.20;2.40;;;12.80;99.90;;;;;;5093166;28;20050;-77
2022/10/03 03:58:04;;;;;;;9.93;2.30;;;12.40;99.90;;;;;;5075079;28;20036;-75
2022/10/03 04:00:59;;;;;;;12.20;2.17;;;12.40;99.90;;;;;;5095716;28;20048;-76
2022/10/03 04:03:52;;;;;;;11.25;2.10;;;12.40;99.90;;;;;;5059410;28;20083;-76
2022/10/03 04:06:31;;;;;;;17.38;2.90;;;12.40;99.90;;;;;;5103644;28;20506;-77
2022/10/03 04:09:15;;;;;;;8.85;2.05;;;12.40;99.90;;;;;;5089512;28;20456;-76
2022/10/03 04:12:08;;;;;;;15.50;3.00;;;12.40;99.90;;;;;;5074784;28;20462;-76
2022/10/03 04:14:58;;;;;;;9.88;2.42;;;12.40;99.90;;;;;;5091467;28;20040;-76
2022/10/03 04:20:30;;;;;;;10.80;2.40;;;12.40;99.90;;;;;;5113485;28;20079;-76
2022/10/03 04:23:33;;;;;;;11.75;2.15;;;12.40;99.90;;;;;;5094802;28;20079;-76
2022/10/03 04:26:36;;;;;;;11.15;2.33;;;12.40;99.90;;;;;;5094989;28;20043;-76
2022/10/03 04:29:39;;;;;;;11.45;2.38;;;12.40;99.90;;;;;;5092901;28;20498;-76
2022/10/03 04:32:31;;;;;;;11.65;2.33;;;12.40;99.90;;;;;;5079589;28;20519;-76
2022/10/03 04:35:00;;;;;;;12.10;2.65;;;12.40;99.90;;;;;;5094832;28;20048;-76
2022/10/03 04:37:44;;;;;;;10.35;1.95;;;12.40;99.90;;;;;;5113104;28;20392;-76
2022/10/03 04:40:57;;;;;;;10.73;2.80;;;12.40;99.90;;;;;;5113188;28;20071;-77
2022/10/03 04:43:29;;;;;;;12.88;2.70;;;12.40;99.90;;;;;;5085709;28;20059;-76
2022/10/03 04:46:13;;;;;;;10.43;2.40;;;12.40;99.90;;;;;;5102402;28;20040;-76
2022/10/03 04:49:22;;;;;;;12.43;2.53;;;12.40;99.90;;;;;;5073677;28;20477;-77
2022/10/03 04:51:57;;;;;;;14.10;2.20;;;12.40;99.90;;;;;;5013252;28;20113;-76
2022/10/03 04:54:38;;;;;;;14.02;2.50;;;12.50;99.90;;;;;;5071219;28;20492;-76
2022/10/03 04:57:24;;;;;;;11.55;2.42;;;12.30;99.90;;;;;;5086097;28;20036;-76
2022/10/03 05:00:02;;;;;;;;;;;12.30;99.90;;;;;;5092820;28;20040;-76
2022/10/03 05:02:44;;;;;;;12.40;2.28;;;12.30;99.90;;;;;;5098043;28;19930;-76
2022/10/03 05:06:11;;;;;;;11.90;2.30;;;12.20;99.90;;;;;;5112418;28;20047;-76
2022/10/03 05:08:50;;;;;;;11.45;2.25;;;12.20;99.90;;;;;;4972607;28;20553;-76
2022/10/03 05:11:40;;;;;;;7.95;2.03;;;12.20;99.90;;;;;;5000542;28;20050;-76
2022/10/03 05:14:33;;;;;;;8.32;2.25;;;12.10;99.90;;;;;;5100322;28;20052;-76
2022/10/03 05:17:18;;;;;;;11.15;2.25;;;12.00;99.90;;;;;;5080357;28;20040;-76
2022/10/03 05:20:20;;;;;;;11.18;2.45;;;12.20;99.90;;;;;;5065310;28;20131;-76
2022/10/03 05:23:16;;;;;;;9.88;2.25;;;12.00;99.90;;;;;;5073824;28;20040;-76
2022/10/03 05:26:03;;;;;;;15.02;2.17;;;11.90;99.90;;;;;;5073924;28;20082;-77
2022/10/03 05:28:58;;;;;;;11.00;2.10;;;11.90;99.90;;;;;;5092381;28;20431;-77
2022/10/03 05:31:24;;;;;;;12.38;2.65;;;12.00;99.90;;;;;;5104967;28;20055;-77
2022/10/03 05:34:10;;;;;;;12.43;2.67;;;11.80;99.90;;;;;;5094415;28;20491;-77
2022/10/03 05:37:01;;;;;;;11.88;2.45;;;11.80;99.90;;;;;;5112521;28;20379;-77
2022/10/03 05:39:42;;;;;;;12.48;2.15;;;11.80;99.90;;;;;;5093339;28;20735;-77
2022/10/03 05:42:34;;;;;;;10.30;2.05;;;11.80;99.90;;;;;;5093843;28;20044;-76
2022/10/03 05:45:22;;;;;;;11.43;2.78;;;11.70;99.90;;;;;;5110361;28;20039;-76
2022/10/03 05:47:54;;;;;;;7.75;1.90;;;11.70;99.90;;;;;;5098849;28;20044;-77
2022/10/03 05:50:40;;;;;;;11.93;2.50;;;11.70;99.90;;;;;;5074118;28;20116;-77
2022/10/03 05:53:43;;;;;;;12.23;2.70;;;11.70;99.90;;;;;;5073652;28;20047;-77
2022/10/03 05:56:44;;;;;;;11.45;2.08;;;11.70;99.90;;;;;;5091725;28;20345;-77
2022/10/03 05:59:50;;;;;;;11.80;2.30;;;11.60;99.90;;;;;;5057672;28;20044;-77
2022/10/03 06:02:53;;;;;;;11.18;2.30;;;11.60;99.90;;;;;;5071867;28;20051;-77
2022/10/03 06:05:57;;;;;;;14.85;2.80;;;11.60;99.90;;;;;;5081363;28;20370;-78
2022/10/03 06:08:26;;;;;;;10.32;3.03;;;11.70;99.90;;;;;;5050722;28;20040;-77
2022/10/03 06:11:11;;;;;;;13.82;2.75;;;12.30;99.90;;;;;;5094935;28;20123;-77
2022/10/03 06:13:46;;;;;;;10.65;3.22;;;11.60;99.90;;;;;;5077112;28;20048;-77
2022/10/03 06:16:23;;;;;;;13.27;2.83;;;11.60;99.90;;;;;;5077215;28;20114;-78
2022/10/03 06:19:22;;;;;;;14.00;2.88;;;11.60;99.90;;;;;;5076345;28;20047;-78
2022/10/03 06:22:05;;;;;;;13.32;2.90;;;11.60;99.90;;;;;;5087763;28;20051;-77
2022/10/03 06:24:49;;;;;;;15.38;3.47;;;12.10;99.90;;;;;;5113145;28;20054;-78
2022/10/03 06:27:52;;;;;;;16.30;3.17;;;11.60;99.90;;;;;;5086216;28;20039;-76
2022/10/03 06:30:52;;;;;;;14.90;3.17;;;11.60;99.90;;;;;;5099334;28;20559;-78
2022/10/03 06:33:50;;;;;;;11.75;3.28;;;11.70;99.90;;;;;;5093273;28;20393;-77
2022/10/03 06:36:43;;;;;;;14.50;3.25;;;11.70;99.90;;;;;;5060111;28;20059;-78
2022/10/03 06:39:46;;;;;;;12.75;3.20;;;12.00;99.90;;;;;;5082762;28;20458;-78
2022/10/03 06:42:27;;;;;;;13.77;3.40;;;11.90;99.90;;;;;;5076145;28;20397;-80
2022/10/03 06:45:16;;;;;;;8.45;3.03;;;12.70;99.90;;;;;;5094598;28;20051;-78
2022/10/03 06:48:04;;;;;;;13.10;3.17;;;12.90;99.90;;;;;;5091773;28;20048;-78
2022/10/03 06:50:52;;;;;;;12.95;3.55;;;13.50;99.90;;;;;;5080312;28;20445;-79
2022/10/03 06:53:50;;;;;;;16.15;3.30;;;14.10;99.90;;;;;;5087893;28;20062;-78
2022/10/03 06:56:37;;;;;;;10.25;3.40;;;13.70;99.90;;;;;;5092621;28;20155;-78
2022/10/03 06:59:08;;;;;;;10.85;3.75;;;14.00;99.90;;;;;;5092722;28;20048;-78
2022/10/03 07:01:34;;;;;;;14.98;3.80;;;13.70;99.90;;;;;;5094019;28;20040;-78
2022/10/03 07:04:36;;;;;;;11.30;2.83;;;14.20;99.90;;;;;;5092950;28;20461;-78
2022/10/03 07:07:46;;;;;;;11.88;2.88;;;14.20;99.90;;;;;;5022375;28;20092;-79
2022/10/03 07:10:21;;;;;;;9.15;2.72;;;13.90;99.90;;;;;;5077688;28;20559;-78
2022/10/03 07:13:21;;;;;;;8.43;2.70;;;14.00;99.90;;;;;;5092325;28;20083;-78
2022/10/03 07:15:50;;;;;;;11.82;3.47;;;13.90;99.90;;;;;;5086247;28;20083;-78
2022/10/03 07:18:25;;;;;;;10.85;3.08;;;13.90;99.90;;;;;;5072048;28;20516;-78
2022/10/03 07:20:57;;;;;;;13.40;3.10;;;13.90;99.90;;;;;;5073118;28;20474;-79
2022/10/03 07:23:44;;;;;;;12.50;2.80;;;13.70;99.90;;;;;;5084599;28;20499;-80
2022/10/03 07:26:16;;;;;;;11.93;3.13;;;13.60;99.90;;;;;;5091277;28;20101;-80
2022/10/03 07:28:55;;;;;;;12.02;3.05;;;13.00;99.90;;;;;;5093758;28;20080;-80
2022/10/03 07:31:56;;;;;;;13.05;3.38;;;13.70;99.90;;;;;;5076408;28;20044;-81
2022/10/03 07:34:55;;;;;;;10.68;2.92;;;13.70;99.90;;;;;;5101063;28;20048;-80
2022/10/03 07:41:04;;;;;;;13.02;3.47;;;16.40;99.90;;;;;;5093574;28;20062;-81
2022/10/03 07:44:07;;;;;;;12.38;2.65;;;17.30;99.90;;;;;;5095384;28;20468;-81
2022/10/03 07:47:10;;;;;;;13.15;2.97;;;16.70;99.90;;;;;;5088187;28;20128;-81
2022/10/03 07:49:54;;;;;;;11.15;4.03;;;;;;;;;;5094519;28;20040;-81
2022/10/03 07:52:39;;;;;;;10.93;3.42;;;;;;;;;;5094159;28;20085;-81
2022/10/03 07:55:37;;;;;;;10.73;3.10;;;17.10;99.90;;;;;;5095471;28;20044;-81
2022/10/03 07:58:33;;;;;;;12.10;3.13;;;25.10;99.90;;;;;;5049405;28;20056;-82
2022/10/03 08:01:36;;;;;;;13.70;3.03;;;26.80;99.90;;;;;;5074873;28;20056;-82
2022/10/03 08:04:14;;;;;;;12.63;3.08;;;28.00;99.90;;;;;;5074978;28;20040;-82
2022/10/03 08:06:42;;;;;;;7.57;2.47;;;29.10;98.10;;;;;;5093038;28;20130;-83
2022/10/03 08:09:14;;;;;;;8.77;2.35;;;29.60;96.60;;;;;;5058692;28;20032;-83
2022/10/03 08:11:46;;;;;;;10.38;2.50;;;27.60;96.50;;;;;;5058164;28;20178;-82
2022/10/03 08:14:25;;;;;;;8.20;1.92;;;25.90;96.70;;;;;;5093754;28;20130;-83
2022/10/03 08:17:37;;;;;;;10.15;2.55;;;24.50;98.20;;;;;;5057946;28;20094;-83
2022/10/03 08:20:06;;;;;;;8.50;2.20;;;22.80;99.50;;;;;;5074932;28;20071;-83
2022/10/03 08:22:50;;;;;;;10.02;2.10;;;22.10;99.90;;;;;;5092838;28;20152;-83
2022/10/03 08:25:28;;;;;;;10.52;2.47;;;20.90;99.90;;;;;;5086451;28;20062;-83
2022/10/03 08:28:16;;;;;;;8.95;2.03;;;21.00;99.90;;;;;;5078778;28;20044;-83
2022/10/03 08:31:05;;;;;;;10.32;2.13;;;21.80;99.90;;;;;;5086736;28;20047;-83
2022/10/03 08:33:54;;;;;;;10.07;2.05;;;21.70;99.90;;;;;;5109717;28;20046;-83
2022/10/03 08:36:37;;;;;;;8.07;2.35;;;22.20;99.90;;;;;;5110738;28;20043;-80
2022/10/03 08:39:28;;;;;;;7.80;1.83;;;22.40;99.90;;;;;;5093920;28;20059;-82
2022/10/03 08:42:45;;;;;;;9.40;1.92;;;22.50;99.90;;;;;;5091297;28;20538;-82
2022/10/03 08:45:29;;;;;;;;;;;22.80;99.90;;;;;;5068029;28;20058;-81
2022/10/03 08:48:20;;;;;;;7.75;1.77;;;22.90;99.90;;;;;;5099516;28;19920;-82
2022/10/03 08:51:04;;;;;;;5.97;1.65;;;23.00;99.90;;;;;;5094051;28;20047;-83
2022/10/03 08:53:47;;;;;;;7.20;1.80;;;22.90;99.90;;;;;;5082755;28;20044;-81
2022/10/03 08:56:55;;;;;;;8.35;2.05;;;22.70;99.90;;;;;;5074010;28;20135;-80
2022/10/03 08:59:37;;;;;;;7.35;1.98;;;22.60;99.90;;;;;;5079228;28;20147;-81
2022/10/03 09:02:33;;;;;;;7.03;1.80;;;22.70;99.90;;;;;;5092192;28;20097;-81
2022/10/03 09:05:04;;;;;;;8.77;2.10;;;22.40;99.90;;;;;;5092556;28;20040;-81
2022/10/03 09:07:35;;;;;;;9.73;2.20;;;22.50;99.90;;;;;;5098395;28;20048;-80
2022/10/03 09:10:24;;;;;;;8.30;1.90;;;22.60;99.90;;;;;;5112866;28;20049;-80
2022/10/03 09:13:06;;;;;;;7.53;1.83;;;22.70;99.90;;;;;;5089505;28;20047;-80
2022/10/03 09:15:56;;;;;;;8.25;1.85;;;22.80;99.90;;;;;;5091179;28;20052;-80
2022/10/03 09:18:50;;;;;;;7.88;1.67;;;22.70;99.90;;;;;;5089908;28;20078;-81
2022/10/03 09:21:43;;;;;;;5.32;1.52;;;22.60;99.90;;;;;;5073234;28;20051;-81
2022/10/03 09:24:33;;;;;;;8.43;1.98;;;22.30;99.90;;;;;;5091930;28;20040;-80
2022/10/03 09:27:22;;;;;;;8.20;1.80;;;22.40;99.90;;;;;;5091721;28;20162;-81
2022/10/03 09:30:03;;;;;;;8.57;1.80;;;22.30;99.90;;;;;;5091593;28;20044;-81
2022/10/03 09:33:07;;;;;;;8.43;1.80;;;22.30;99.90;;;;;;5073577;28;20441;-80
2022/10/03 09:35:38;;;;;;;8.40;2.05;;;22.30;99.90;;;;;;5091953;28;20173;-80
2022/10/03 09:38:13;;;;;;;8.07;1.90;;;22.30;99.90;;;;;;5073976;28;20162;-80
2022/10/03 09:40:38;;;;;;;7.00;1.80;;;22.30;99.90;;;;;;5089978;28;20404;-80
2022/10/03 09:43:35;;;;;;;7.18;1.90;;;22.30;99.90;;;;;;5093369;28;20048;-80
2022/10/03 09:46:01;;;;;;;10.02;2.00;;;22.50;99.90;;;;;;5077924;28;20040;-80
2022/10/03 09:48:39;;;;;;;10.80;2.15;;;22.70;99.90;;;;;;5077656;28;20105;-80
2022/10/03 09:51:23;;;;;;;6.85;2.03;;;22.80;99.90;;;;;;5077710;28;20096;-80
2022/10/03 09:54:01;;;;;;;8.52;1.98;;;22.90;99.80;;;;;;5094778;28;20048;-80
2022/10/03 09:56:54;;;;;;;7.13;2.05;;;23.00;99.90;;;;;;5059450;28;20150;-81
2022/10/03 09:59:58;;;;;;;9.13;2.28;;;23.20;99.50;;;;;;5096006;28;20062;-81
2022/10/03 10:02:42;;;;;;;5.35;1.55;;;23.10;99.50;;;;;;5095613;28;20083;-81
2022/10/03 10:05:38;;;;;;;8.40;1.80;;;23.10;99.50;;;;;;5077227;28;20048;-81
2022/10/03 10:08:13;;;;;;;11.88;1.95;;;23.30;99.10;;;;;;5076546;28;20064;-81
2022/10/03 10:11:09;;;;;;;10.02;1.73;;;23.60;99.00;;;;;;5077380;28;20059;-81
2022/10/03 10:14:10;;;;;;;6.68;1.67;;;23.70;98.90;;;;;;5095474;28;20047;-81
2022/10/03 10:17:18;;;;;;;7.60;1.75;;;23.90;98.40;;;;;;5095080;28;20048;-81
2022/10/03 10:20:10;;;;;;;6.32;1.80;;;24.20;98.20;;;;;;5077090;28;20170;-81
2022/10/03 10:22:56;;;;;;;6.78;1.65;;;24.50;98.10;;;;;;5094874;28;20404;-81
2022/10/03 10:25:34;;;;;;;7.45;1.67;;;24.70;97.60;;;;;;5077491;28;20047;-81
2022/10/03 10:28:21;;;;;;;7.38;1.60;;;24.80;97.20;;;;;;5095245;28;20425;-80
2022/10/03 10:31:26;;;;;;;9.25;1.92;;;25.00;97.30;;;;;;5094881;28;20040;-80
2022/10/03 10:34:25;;;;;;;6.40;1.80;;;25.20;96.50;;;;;;5077287;28;20087;-79
2022/10/03 10:37:31;;;;;;;9.68;1.67;;;25.40;96.10;;;;;;5094552;28;20170;-80
2022/10/03 10:40:35;;;;;;;6.83;1.67;;;25.50;95.00;;;;;;5094963;28;20048;-81
2022/10/03 10:43:44;;;;;;;6.35;1.85;;;25.30;95.40;;;;;;5089955;28;20048;-81
2022/10/03 10:46:27;;;;;;;5.55;1.60;;;25.60;95.30;;;;;;5094580;28;20114;-81
2022/10/03 10:49:13;;;;;;;7.40;1.80;;;26.00;94.40;;;;;;5094655;28;20039;-81
2022/10/03 10:51:57;;;;;;;6.57;1.60;;;26.10;93.60;;;;;;5075701;28;20548;-81
2022/10/03 10:54:47;;;;;;;4.55;1.30;;;25.60;93.20;;;;;;5075646;28;20044;-81
2022/10/03 10:57:22;;;;;;;5.18;1.60;;;25.40;93.90;;;;;;5043389;28;20044;-82
2022/10/03 11:00:18;;;;;;;5.13;1.67;;;25.30;93.70;;;;;;5076352;28;20040;-82
2022/10/03 11:03:34;;;;;;;6.07;1.60;;;25.80;93.40;;;;;;5093837;28;20412;-81
2022/10/03 11:06:06;;;;;;;5.93;1.95;;;25.80;94.20;;;;;;5094052;28;20051;-81
2022/10/03 11:09:01;;;;;;;5.13;1.75;;;25.50;94.50;;;;;;5076083;28;20058;-81
2022/10/03 11:11:45;;;;;;;3.60;1.50;;;25.50;94.10;;;;;;5094026;28;20047;-82
2022/10/03 11:14:25;;;;;;;5.47;1.60;;;25.40;94.30;;;;;;5093837;28;20079;-82
2022/10/03 11:17:29;;;;;;;5.53;1.52;;;25.10;94.50;;;;;;5093761;28;20054;-81
2022/10/03 11:20:32;;;;;;;6.57;1.63;;;25.10;94.00;;;;;;5075900;28;20052;-82
2022/10/03 11:23:21;;;;;;;5.15;1.50;;;24.90;94.20;;;;;;5092068;28;20404;-82
2022/10/03 11:26:06;;;;;;;7.15;1.80;;;25.00;93.90;;;;;;5092101;28;20130;-82
2022/10/03 11:28:53;;;;;;;5.53;1.52;;;24.90;93.80;;;;;;5094065;28;20040;-82
2022/10/03 11:31:39;;;;;;;5.90;1.80;;;24.50;94.30;;;;;;5075439;28;20048;-82
2022/10/03 11:34:24;;;;;;;5.35;1.50;;;24.10;94.70;;;;;;5075400;28;20134;-82
2022/10/03 11:37:08;;;;;;;6.10;1.77;;;23.90;94.70;;;;;;5091617;28;20458;-82
2022/10/03 11:39:55;;;;;;;5.95;1.58;;;23.70;95.10;;;;;;5093943;28;20236;-81
2022/10/03 11:42:42;;;;;;;6.00;1.83;;;23.60;95.50;;;;;;5093358;28;20119;-82
2022/10/03 11:45:39;;;;;;;7.85;1.60;;;23.60;95.10;;;;;;5075598;28;20380;-83
2022/10/03 11:48:18;;;;;;;5.72;1.60;;;23.40;95.40;;;;;;5093743;28;20047;-82
2022/10/03 11:51:08;;;;;;;8.60;1.63;;;23.30;95.60;;;;;;5093234;28;20059;-82
2022/10/03 11:54:05;;;;;;;6.20;1.60;;;23.30;95.60;;;;;;5074753;28;20039;-82
2022/10/03 11:56:37;;;;;;;6.38;1.60;;;23.50;95.30;;;;;;5073922;28;20055;-82
2022/10/03 11:59:22;;;;;;;5.75;1.70;;;23.30;95.10;;;;;;5093409;28;20136;-82
2022/10/03 12:02:37;;;;;;;6.45;1.75;;;23.30;95.30;;;;;;5058694;28;20509;-83
2022/10/03 12:05:32;;;;;;;4.95;1.50;;;23.30;96.00;;;;;;5056278;28;20156;-82
2022/10/03 12:11:20;;;;;;;6.35;1.58;;;24.00;95.50;;;;;;5073396;28;20048;-82
2022/10/03 12:14:05;;;;;;;7.60;1.80;;;24.00;95.00;;;;;;5074677;28;20058;-82
2022/10/03 12:16:44;;;;;;;6.07;1.50;;;24.10;95.50;;;;;;5075569;28;20101;-82
2022/10/03 12:19:37;;;;;;;7.15;1.50;;;24.70;94.30;;;;;;5074571;28;20575;-82
2022/10/03 12:22:18;;;;;;;4.65;1.45;;;25.10;93.50;;;;;;5074962;28;20379;-82
2022/10/03 12:24:46;;;;;;;6.13;1.70;;;25.20;93.40;;;;;;5092769;28;20040;-82
2022/10/03 12:27:42;;;;;;;5.57;1.52;;;25.00;93.60;;;;;;5102472;28;20398;-82
2022/10/03 12:30:15;;;;;;;3.67;1.35;;;24.90;93.80;;;;;;5112410;28;20047;-82
2022/10/03 12:33:05;;;;;;;5.53;1.50;;;25.10;93.40;;;;;;5090623;28;20172;-82
2022/10/03 12:35:54;;;;;;;3.28;1.23;;;24.90;93.50;;;;;;5090654;28;20044;-82
2022/10/03 12:38:34;;;;;;;7.78;1.30;;;24.90;93.30;;;;;;5063944;28;20488;-82
2022/10/03 12:41:23;;;;;;;6.32;1.42;;;25.10;93.20;;;;;;5091408;28;20052;-82
2022/10/03 12:43:54;;;;;;;6.80;1.48;;;25.00;93.00;;;;;;5092710;28;20044;-82
2022/10/03 12:46:55;;;;;;;6.72;1.65;;;25.00;93.20;;;;;;5074424;28;20077;-82
2022/10/03 12:49:51;;;;;;;5.78;1.35;;;24.90;93.20;;;;;;5091389;28;20051;-82
2022/10/03 12:52:24;;;;;;;6.40;1.40;;;25.10;93.40;;;;;;5092329;28;20105;-82
2022/10/03 12:55:02;;;;;;;5.20;1.30;;;25.00;93.50;;;;;;5078003;28;20117;-82
2022/10/03 12:57:52;;;;;;;4.95;1.52;;;24.60;93.90;;;;;;5080761;28;20122;-82
2022/10/03 13:00:34;;;;;;;8.68;1.80;;;24.20;94.30;;;;;;5054183;28;20054;-81
2022/10/03 13:03:27;;;;;;;7.45;1.63;;;23.90;94.60;;;;;;5074598;28;20037;-81
2022/10/03 13:06:32;;;;;;;6.05;1.73;;;24.20;95.00;;;;;;5075417;28;20407;-81
2022/10/03 13:09:19;;;;;;;5.05;1.45;;;23.10;95.30;;;;;;5052218;28;20406;-81
2022/10/03 13:11:57;;;;;;;6.50;1.40;;;22.60;96.00;;;;;;5071423;28;20113;-76
2022/10/03 13:14:29;;;;;;;9.02;1.98;;;22.30;96.30;;;;;;5071860;28;20040;-76
2022/10/03 13:17:34;;;;;;;7.22;1.65;;;22.10;96.80;;;;;;5071824;28;20075;-76
2022/10/03 13:20:05;;;;;;;5.85;1.67;;;21.90;97.50;;;;;;5082862;28;20050;-76
2022/10/03 13:22:49;;;;;;;6.78;1.58;;;21.80;97.30;;;;;;5095983;28;20446;-76
2022/10/03 13:25:32;;;;;;;5.50;1.33;;;21.80;97.30;;;;;;5091651;28;20044;-76
2022/10/03 13:28:07;;;;;;;4.30;1.40;;;21.70;97.50;;;;;;5074847;28;20447;-76
2022/10/03 13:30:55;;;;;;;7.10;2.10;;;21.60;97.80;;;;;;5057682;28;20071;-76
2022/10/03 13:33:32;;;;;;;8.05;1.73;;;21.50;98.00;;;;;;5095073;28;20056;-78
2022/10/03 13:36:16;;;;;;;3.08;1.30;;;21.30;98.20;;;;;;5093989;28;20044;-79
2022/10/03 13:39:01;;;;;;;4.55;1.60;;;21.20;98.50;;;;;;5110452;28;20044;-78
2022/10/03 13:41:45;;;;;;;8.77;1.75;;;21.20;98.80;;;;;;5115599;28;20096;-78
2022/10/03 13:44:18;;;;;;;7.78;1.83;;;21.20;99.00;;;;;;5098214;28;20085;-78
2022/10/03 13:46:56;;;;;;;7.00;1.50;;;21.30;99.10;;;;;;5082529;28;20082;-79
2022/10/03 13:49:31;;;;;;;5.50;1.65;;;21.30;99.20;;;;;;5083567;28;20062;-77
2022/10/03 13:52:01;;;;;;;7.50;1.30;;;21.30;99.40;;;;;;5095498;28;20348;-77
2022/10/03 13:55:04;;;;;;;7.40;1.42;;;21.20;99.50;;;;;;5077061;28;20168;-77
2022/10/03 13:58:00;;;;;;;5.85;1.60;;;21.20;99.70;;;;;;5095611;28;20051;-77
2022/10/03 14:00:39;;;;;;;5.55;1.52;;;21.20;99.90;;;;;;5096918;28;20055;-77
2022/10/03 14:03:30;;;;;;;9.40;1.80;;;21.30;99.80;;;;;;5077275;28;20035;-77
2022/10/03 14:06:14;;;;;;;8.30;1.83;;;21.00;99.90;;;;;;5095611;28;20075;-77
2022/10/03 14:09:17;;;;;;;6.75;1.73;;;20.90;99.90;;;;;;5084939;28;20081;-78
2022/10/03 14:12:20;;;;;;;7.65;1.60;;;20.70;99.90;;;;;;5101599;28;20126;-78
2022/10/03 14:14:56;;;;;;;6.45;1.63;;;20.60;99.90;;;;;;5081396;28;20047;-77
2022/10/03 14:17:46;;;;;;;6.13;1.75;;;20.50;99.90;;;;;;5115524;28;20047;-78
2022/10/03 14:20:20;;;;;;;5.63;1.60;;;20.40;99.90;;;;;;5115549;28;20137;-77
2022/10/03 14:23:24;;;;;;;6.38;1.50;;;20.40;99.90;;;;;;5096273;28;20446;-76
2022/10/03 14:26:11;;;;;;;6.07;1.67;;;20.30;99.90;;;;;;5096746;28;20391;-78
2022/10/03 14:28:57;;;;;;;6.95;1.65;;;20.30;99.90;;;;;;5094527;28;20052;-78
2022/10/03 14:31:33;;;;;;;6.75;1.92;;;20.20;99.90;;;;;;5076242;28;20106;-78
2022/10/03 14:34:17;;;;;;;6.55;1.67;;;20.10;99.90;;;;;;5096128;28;20478;-81
2022/10/03 14:36:51;;;;;;;6.47;1.73;;;20.10;99.90;;;;;;5079406;28;20048;-81
2022/10/03 14:39:39;;;;;;;5.07;1.40;;;20.00;99.90;;;;;;5098375;28;20036;-80